Terminal Aerodrome Forecast
Issued by NWS

Home | Current Version | Previous Version | Text Only | Print | Product List | Glossary On
Versions: 1 2 3 4 5 6 7 8 9 10 11 12 13 14 15 16
000
FTPQ31 PGUM 280525
TAFGUM
TAF

TAF
PGRO 280525Z 2806/2906 15007KT P6SM VCSH SCT013 BKN080=

USA.gov is the U.S. government's official web portal to all federal, state and local government web resources and services.